createdAt,value
2019-03-12T00:01:18.096Z,2.00
2019-03-12T00:03:48.878Z,1.90
2019-03-12T00:06:19.390Z,2.00
2019-03-12T00:08:51.790Z,2.00
2019-03-12T00:11:22.201Z,2.00
2019-03-12T00:13:52.937Z,1.90
2019-03-12T00:16:23.395Z,1.90
2019-03-12T00:18:54.830Z,1.90
2019-03-12T00:21:26.247Z,2.00
2019-03-12T00:23:56.787Z,1.90
2019-03-12T00:26:27.294Z,2.00
2019-03-12T00:28:57.786Z,2.00
2019-03-12T00:31:28.214Z,2.00
2019-03-12T00:33:58.717Z,2.00
2019-03-12T00:36:29.169Z,2.00
2019-03-12T00:38:59.641Z,2.00
2019-03-12T00:41:30.089Z,2.00
2019-03-12T00:44:00.526Z,2.10
2019-03-12T00:46:30.941Z,2.00
2019-03-12T00:49:01.452Z,2.10
2019-03-12T00:51:31.930Z,2.10
2019-03-12T00:54:02.404Z,2.10
2019-03-12T00:56:32.847Z,2.10
2019-03-12T00:59:03.324Z,2.10
2019-03-12T01:01:33.814Z,2.10
2019-03-12T01:04:04.307Z,2.10
2019-03-12T01:06:34.767Z,2.10
2019-03-12T01:09:06.975Z,2.10
2019-03-12T01:11:37.659Z,2.10
2019-03-12T01:14:08.144Z,2.00
2019-03-12T01:16:38.600Z,2.10
2019-03-12T01:19:09.104Z,2.00
2019-03-12T01:21:39.640Z,2.10
2019-03-12T01:24:10.102Z,2.00
2019-03-12T01:26:40.576Z,2.00
2019-03-12T01:29:11.104Z,2.00
2019-03-12T01:31:41.592Z,2.00
2019-03-12T01:34:12.146Z,2.00
2019-03-12T01:36:42.689Z,1.90
2019-03-12T01:39:13.117Z,1.90
2019-03-12T01:41:43.697Z,2.00
2019-03-12T01:44:14.105Z,2.00
2019-03-12T01:46:44.761Z,1.90
2019-03-12T01:49:15.213Z,2.00
2019-03-12T01:51:45.668Z,2.00
2019-03-12T01:54:16.092Z,2.00
2019-03-12T01:56:46.628Z,2.00
2019-03-12T01:59:17.139Z,2.00
2019-03-12T02:01:47.585Z,2.00
2019-03-12T02:04:19.148Z,2.00
2019-03-12T02:06:49.679Z,2.00
2019-03-12T02:09:20.288Z,2.00
2019-03-12T02:11:50.785Z,2.00
2019-03-12T02:14:26.178Z,2.00
2019-03-12T02:16:56.686Z,2.00
2019-03-12T02:19:27.130Z,2.00
2019-03-12T02:21:57.599Z,2.10
2019-03-12T02:24:28.233Z,2.00
2019-03-12T02:26:58.780Z,2.10
2019-03-12T02:29:29.254Z,2.10
2019-03-12T02:31:59.711Z,2.00
2019-03-12T02:34:31.202Z,2.00
2019-03-12T02:37:01.765Z,2.00
2019-03-12T02:39:32.176Z,2.00
2019-03-12T02:42:02.731Z,2.10
2019-03-12T02:44:33.152Z,2.00
2019-03-12T02:47:03.614Z,2.00
2019-03-12T02:49:34.035Z,2.00
2019-03-12T02:52:04.553Z,2.00
2019-03-12T02:54:34.995Z,2.00
2019-03-12T02:57:05.411Z,2.00
2019-03-12T02:59:35.851Z,2.00
2019-03-12T03:02:06.323Z,2.10
2019-03-12T03:04:36.885Z,2.10
2019-03-12T03:07:35.451Z,2.10
2019-03-12T03:10:07.432Z,2.10
2019-03-12T03:12:37.976Z,2.00
2019-03-12T03:15:14.946Z,2.10
2019-03-12T03:17:45.412Z,2.10
2019-03-12T03:20:15.892Z,2.10
2019-03-12T03:22:46.414Z,2.10
2019-03-12T03:25:17.121Z,2.10
2019-03-12T03:27:47.737Z,2.10
2019-03-12T03:30:20.344Z,2.10
2019-03-12T03:32:50.795Z,2.10
2019-03-12T03:35:22.243Z,2.10
2019-03-12T03:37:52.667Z,2.10
2019-03-12T03:40:23.129Z,2.20
2019-03-12T03:42:53.538Z,2.10
2019-03-12T03:45:24.007Z,2.10
2019-03-12T03:47:54.437Z,2.10
2019-03-12T03:50:25.003Z,2.20
2019-03-12T03:52:55.543Z,2.10
2019-03-12T03:55:25.975Z,2.10
2019-03-12T03:57:56.430Z,2.10
2019-03-12T04:00:26.879Z,2.10
2019-03-12T04:02:57.323Z,2.10
2019-03-12T04:05:27.808Z,2.10
2019-03-12T04:07:58.277Z,2.20
2019-03-12T04:10:28.729Z,2.20
2019-03-12T04:12:59.174Z,2.20
2019-03-12T04:15:29.698Z,2.20
2019-03-12T04:18:00.103Z,2.20
2019-03-12T04:20:30.590Z,2.30
2019-03-12T04:23:01.019Z,2.30
2019-03-12T04:25:31.513Z,2.30
2019-03-12T04:28:01.941Z,2.30
2019-03-12T04:30:32.413Z,2.30
2019-03-12T04:33:02.927Z,2.20
2019-03-12T04:35:33.404Z,2.20
2019-03-12T04:38:03.836Z,2.20
2019-03-12T04:40:34.273Z,2.20
2019-03-12T04:43:04.703Z,2.20
2019-03-12T04:45:35.123Z,2.20
2019-03-12T04:48:05.674Z,2.20
2019-03-12T04:50:36.128Z,2.20
2019-03-12T04:53:06.611Z,2.20
2019-03-12T04:55:37.079Z,2.20
2019-03-12T04:58:07.541Z,2.20
2019-03-12T05:00:37.966Z,2.20
2019-03-12T05:03:08.511Z,2.20
2019-03-12T05:05:38.989Z,2.20
2019-03-12T05:08:09.548Z,2.20
2019-03-12T05:10:40.053Z,2.20
2019-03-12T05:13:10.546Z,2.20
2019-03-12T05:15:40.991Z,2.20
2019-03-12T05:18:11.503Z,2.20
2019-03-12T05:20:42.022Z,2.10
2019-03-12T05:23:12.610Z,2.10
2019-03-12T05:25:44.125Z,2.10
2019-03-12T05:28:14.585Z,2.00
2019-03-12T05:30:45.041Z,2.10
2019-03-12T05:33:16.659Z,2.10
2019-03-12T05:35:48.349Z,2.20
2019-03-12T05:38:18.837Z,2.20
2019-03-12T05:40:49.436Z,2.50
2019-03-12T05:43:19.970Z,2.70
2019-03-12T05:45:50.462Z,3.00
2019-03-12T05:48:21.048Z,3.20
2019-03-12T05:50:51.556Z,3.50
2019-03-12T05:53:23.482Z,3.70
2019-03-12T05:55:54.075Z,3.50
2019-03-12T05:58:24.514Z,3.40
2019-03-12T06:00:55.058Z,3.30
2019-03-12T06:03:25.597Z,3.60
2019-03-12T06:05:56.140Z,4.00
2019-03-12T06:08:27.660Z,4.30
2019-03-12T06:10:58.378Z,4.60
2019-03-12T06:13:28.867Z,4.60
2019-03-12T06:15:59.510Z,4.40
2019-03-12T06:18:30.117Z,4.30
2019-03-12T06:21:00.928Z,4.30
2019-03-12T06:23:31.538Z,4.40
2019-03-12T06:26:02.184Z,4.60
2019-03-12T06:28:32.783Z,4.80
2019-03-12T06:31:17.773Z,5.10
2019-03-12T06:33:51.749Z,5.30
2019-03-12T06:36:35.739Z,5.40
2019-03-12T06:39:14.233Z,5.50
2019-03-12T06:42:13.156Z,5.50
2019-03-12T06:45:01.866Z,5.20
2019-03-12T06:47:51.390Z,5.00
2019-03-12T06:50:35.722Z,5.00
2019-03-12T06:53:28.098Z,5.10
2019-03-12T06:56:24.454Z,5.20
2019-03-12T06:59:17.094Z,5.50
2019-03-12T07:01:57.448Z,5.80
2019-03-12T07:04:49.672Z,5.90
2019-03-12T07:07:37.583Z,5.80
2019-03-12T07:10:23.438Z,5.60
2019-03-12T07:13:21.738Z,5.20
2019-03-12T07:16:05.640Z,5.00
2019-03-12T07:18:58.044Z,4.70
2019-03-12T07:21:40.618Z,4.50
2019-03-12T07:24:35.968Z,4.20
2019-03-12T07:27:40.645Z,4.00
2019-03-12T07:30:30.812Z,3.90
2019-03-12T07:33:12.769Z,3.70
2019-03-12T07:36:02.361Z,3.40
2019-03-12T07:38:50.816Z,3.30
2019-03-12T07:41:34.356Z,3.40
2019-03-12T07:44:11.103Z,3.40
2019-03-12T07:46:57.914Z,3.40
2019-03-12T07:49:45.833Z,3.50
2019-03-12T07:52:39.658Z,3.50
2019-03-12T07:55:32.153Z,3.50
2019-03-12T07:58:35.276Z,3.60
2019-03-12T08:01:14.283Z,3.70
2019-03-12T08:04:21.935Z,3.80
2019-03-12T08:07:20.044Z,3.90
2019-03-12T08:10:01.072Z,4.00
2019-03-12T08:12:52.272Z,4.40
2019-03-12T08:15:44.751Z,4.90
2019-03-12T08:18:35.451Z,5.60
2019-03-12T08:21:22.941Z,6.20
2019-03-12T08:24:30.202Z,6.60
2019-03-12T08:27:19.874Z,6.90
2019-03-12T08:29:58.664Z,6.70
2019-03-12T08:32:53.903Z,6.80
2019-03-12T08:35:38.674Z,6.90
2019-03-12T08:38:31.284Z,6.90
2019-03-12T08:41:23.732Z,6.70
2019-03-12T08:44:05.025Z,6.30
2019-03-12T08:46:53.093Z,6.20
2019-03-12T08:49:34.786Z,6.20
2019-03-12T08:52:27.308Z,6.00
2019-03-12T08:55:04.570Z,6.10
2019-03-12T08:57:56.713Z,6.20
2019-03-12T09:00:52.256Z,6.10
2019-03-12T09:03:47.791Z,6.20
2019-03-12T09:06:43.029Z,6.20
2019-03-12T09:09:31.114Z,6.20
2019-03-12T09:12:20.639Z,6.10
2019-03-12T09:15:17.154Z,6.00
2019-03-12T09:18:15.799Z,5.90
2019-03-12T09:21:05.272Z,5.80
2019-03-12T09:24:00.631Z,6.00
2019-03-12T09:26:36.962Z,6.10
2019-03-12T09:29:16.073Z,6.10
2019-03-12T09:32:03.726Z,6.30
2019-03-12T09:34:48.196Z,6.20
2019-03-12T09:37:28.197Z,6.00
2019-03-12T09:40:07.330Z,5.90
2019-03-12T09:43:08.753Z,6.20
2019-03-12T09:45:52.568Z,6.60
2019-03-12T09:48:41.145Z,7.00
2019-03-12T09:51:30.540Z,6.90
2019-03-12T09:54:10.706Z,6.80
2019-03-12T09:56:55.302Z,6.80
2019-03-12T09:59:44.672Z,6.90
2019-03-12T10:02:32.706Z,7.10
2019-03-12T10:05:31.246Z,7.40
2019-03-12T10:08:19.138Z,7.60
2019-03-12T10:11:19.410Z,7.80
2019-03-12T10:14:03.044Z,7.80
2019-03-12T10:16:58.367Z,7.80
2019-03-12T10:19:46.510Z,7.60
2019-03-12T10:22:34.714Z,7.70
2019-03-12T10:25:36.619Z,7.70
2019-03-12T10:28:14.307Z,7.80
2019-03-12T10:31:06.692Z,7.90
2019-03-12T10:33:53.961Z,7.90
2019-03-12T10:36:41.799Z,7.90
2019-03-12T10:39:55.180Z,7.90
2019-03-12T10:42:35.395Z,7.80
2019-03-12T10:45:27.752Z,7.60
2019-03-12T10:47:58.573Z,7.70
2019-03-12T10:50:30.142Z,7.70
2019-03-12T10:53:00.724Z,7.50
2019-03-12T10:55:31.322Z,7.60
2019-03-12T10:58:01.936Z,7.70
2019-03-12T11:00:32.504Z,7.50
2019-03-12T11:03:03.066Z,7.50
2019-03-12T11:05:45.342Z,7.30
2019-03-12T11:08:06.942Z,7.30
2019-03-12T11:10:37.559Z,7.20
2019-03-12T11:13:08.182Z,7.10
2019-03-12T11:15:38.773Z,7.00
2019-03-12T11:18:09.239Z,7.00
2019-03-12T11:20:39.680Z,7.00
2019-03-12T11:23:10.553Z,7.00
2019-03-12T11:25:41.974Z,7.00
2019-03-12T11:28:12.574Z,6.90
2019-03-12T11:30:43.171Z,6.70
2019-03-12T11:33:13.676Z,6.70
2019-03-12T11:35:44.298Z,6.60
2019-03-12T11:38:14.836Z,6.60
2019-03-12T11:40:46.481Z,6.40
2019-03-12T11:43:17.046Z,6.30
2019-03-12T11:45:47.613Z,6.20
2019-03-12T11:48:18.169Z,6.00
2019-03-12T11:50:48.752Z,6.10
2019-03-12T11:53:19.162Z,6.20
2019-03-12T11:55:49.889Z,6.40
2019-03-12T11:58:20.481Z,6.50
2019-03-12T12:01:03.194Z,6.50
2019-03-12T12:03:35.053Z,6.60
2019-03-12T12:06:05.753Z,6.60
2019-03-12T12:08:36.304Z,6.40
2019-03-12T12:11:06.861Z,6.20
2019-03-12T12:13:37.533Z,6.20
2019-03-12T12:16:08.223Z,6.10
2019-03-12T12:18:38.874Z,6.10
2019-03-12T12:21:09.340Z,6.20
2019-03-12T12:23:39.903Z,6.20
2019-03-12T12:26:11.435Z,6.20
2019-03-12T12:28:42.070Z,6.40
2019-03-12T12:31:12.619Z,6.40
2019-03-12T12:33:43.246Z,6.40
2019-03-12T12:36:13.813Z,6.30
2019-03-12T12:38:44.608Z,6.40
2019-03-12T12:41:15.043Z,6.40
2019-03-12T12:43:45.809Z,6.60
2019-03-12T12:46:16.263Z,6.70
2019-03-12T12:48:46.790Z,6.70
2019-03-12T12:51:17.380Z,6.50
2019-03-12T12:53:47.856Z,6.50
2019-03-12T12:56:18.440Z,6.50
2019-03-12T12:58:49.036Z,6.60
2019-03-12T13:01:19.556Z,6.80
2019-03-12T13:03:52.210Z,6.90
2019-03-12T13:06:22.841Z,7.00
2019-03-12T13:08:53.499Z,7.00
2019-03-12T13:11:25.773Z,7.00
2019-03-12T13:13:58.394Z,6.80
2019-03-12T13:16:29.009Z,6.80
2019-03-12T13:18:59.455Z,6.80
2019-03-12T13:21:30.061Z,6.80
2019-03-12T13:24:00.577Z,6.90
2019-03-12T13:26:31.262Z,6.80
2019-03-12T13:29:01.851Z,6.90
2019-03-12T13:31:33.443Z,6.70
2019-03-12T13:34:04.130Z,6.70
2019-03-12T13:36:34.683Z,6.70
2019-03-12T13:39:07.240Z,6.80
2019-03-12T13:41:39.284Z,6.90
2019-03-12T13:44:09.680Z,7.10
2019-03-12T13:46:40.152Z,7.10
2019-03-12T13:49:10.641Z,7.20
2019-03-12T13:51:41.240Z,7.10
2019-03-12T13:54:11.657Z,7.00
2019-03-12T13:56:42.134Z,6.90
2019-03-12T13:59:12.533Z,6.70
2019-03-12T14:01:42.985Z,6.60
2019-03-12T14:04:14.624Z,6.50
2019-03-12T14:06:45.098Z,6.40
2019-03-12T14:09:15.579Z,6.30
2019-03-12T14:11:46.300Z,6.40
2019-03-12T14:14:19.331Z,6.50
2019-03-12T14:16:49.019Z,6.40
2019-03-12T14:19:19.454Z,6.40
2019-03-12T14:21:49.966Z,6.30
2019-03-12T14:24:20.438Z,6.20
2019-03-12T14:26:50.946Z,6.10
2019-03-12T14:29:23.014Z,6.10
2019-03-12T14:31:53.521Z,6.00
2019-03-12T14:34:26.877Z,6.10
2019-03-12T14:36:55.990Z,6.10
2019-03-12T14:39:26.460Z,6.10
2019-03-12T14:41:58.334Z,6.10
2019-03-12T14:44:28.774Z,6.00
2019-03-12T14:47:00.479Z,6.00
2019-03-12T14:49:30.981Z,6.00
2019-03-12T14:52:24.863Z,6.00
2019-03-12T14:54:55.444Z,5.90
2019-03-12T14:57:25.959Z,5.90
2019-03-12T14:59:56.489Z,5.90
2019-03-12T15:02:27.026Z,5.80
2019-03-12T15:04:59.349Z,5.90
2019-03-12T15:07:29.881Z,5.80
2019-03-12T15:10:03.229Z,5.80
2019-03-12T15:12:34.337Z,5.80
2019-03-12T15:15:08.385Z,5.90
2019-03-12T15:17:39.084Z,5.90
2019-03-12T15:20:10.368Z,6.00
2019-03-12T15:22:40.929Z,6.10
2019-03-12T15:25:11.685Z,6.10
2019-03-12T15:27:42.541Z,6.20
2019-03-12T15:30:15.369Z,6.30
2019-03-12T15:32:46.109Z,6.40
2019-03-12T15:35:16.747Z,6.30
2019-03-12T15:37:47.363Z,6.30
2019-03-12T15:40:17.879Z,6.20
2019-03-12T15:42:48.552Z,6.10
2019-03-12T15:45:19.138Z,6.10
2019-03-12T15:47:49.782Z,6.00
2019-03-12T15:50:20.702Z,6.00
2019-03-12T15:52:51.336Z,5.90
2019-03-12T15:55:21.928Z,5.90
2019-03-12T15:57:52.427Z,5.80
2019-03-12T16:00:22.969Z,5.80
2019-03-12T16:02:53.508Z,5.80
2019-03-12T16:05:25.037Z,5.70
2019-03-12T16:07:57.097Z,5.70
2019-03-12T16:10:27.589Z,5.70
2019-03-12T16:12:59.142Z,5.60
2019-03-12T16:15:29.709Z,5.60
2019-03-12T16:18:00.193Z,5.50
2019-03-12T16:20:30.734Z,5.50
2019-03-12T16:23:01.912Z,5.40
2019-03-12T16:25:33.657Z,5.40
2019-03-12T16:28:05.498Z,5.30
2019-03-12T16:30:37.005Z,5.30
2019-03-12T16:33:07.609Z,5.20
2019-03-12T16:35:38.342Z,5.10
2019-03-12T16:38:08.934Z,5.10
2019-03-12T16:40:39.551Z,5.00
2019-03-12T16:43:10.011Z,4.90
2019-03-12T16:45:40.610Z,4.80
2019-03-12T16:48:11.091Z,4.70
2019-03-12T16:50:41.668Z,4.70
2019-03-12T16:53:12.138Z,4.70
2019-03-12T16:55:42.684Z,4.60
2019-03-12T16:58:13.150Z,4.60
2019-03-12T17:00:43.675Z,4.50
2019-03-12T17:03:14.238Z,4.50
2019-03-12T17:05:44.767Z,4.40
2019-03-12T17:08:15.402Z,4.40
2019-03-12T17:10:56.848Z,4.30
2019-03-12T17:13:18.372Z,4.30
2019-03-12T17:15:52.206Z,4.30
2019-03-12T17:18:21.161Z,4.30
2019-03-12T17:20:51.827Z,4.20
2019-03-12T17:23:22.387Z,4.20
2019-03-12T17:25:53.024Z,4.20
2019-03-12T17:28:23.652Z,4.20
2019-03-12T17:30:54.546Z,4.10
2019-03-12T17:33:25.154Z,4.10
2019-03-12T17:35:55.894Z,4.10
2019-03-12T17:38:26.453Z,4.10
2019-03-12T17:40:56.973Z,4.10
2019-03-12T17:43:27.561Z,4.10
2019-03-12T17:45:58.212Z,4.00
2019-03-12T17:48:28.863Z,4.00
2019-03-12T17:50:59.376Z,4.00
2019-03-12T17:53:29.906Z,4.00
2019-03-12T17:56:00.407Z,4.00
2019-03-12T17:58:31.001Z,3.90
2019-03-12T18:01:01.458Z,3.90
2019-03-12T18:03:32.092Z,3.90
2019-03-12T18:06:02.635Z,3.80
2019-03-12T18:08:33.319Z,3.80
2019-03-12T18:11:05.865Z,3.80
2019-03-12T18:13:36.012Z,3.90
2019-03-12T18:16:07.612Z,3.90
2019-03-12T18:18:38.320Z,4.00
2019-03-12T18:21:08.729Z,4.00
2019-03-12T18:23:39.367Z,4.00
2019-03-12T18:26:11.872Z,4.00
2019-03-12T18:28:42.554Z,4.10
2019-03-12T18:31:13.155Z,4.00
2019-03-12T18:33:43.691Z,4.10
2019-03-12T18:36:14.278Z,4.00
2019-03-12T18:38:44.892Z,4.00
2019-03-12T18:41:15.417Z,4.00
2019-03-12T18:43:45.908Z,4.00
2019-03-12T18:46:16.472Z,4.00
2019-03-12T18:48:46.997Z,4.00
2019-03-12T18:51:17.691Z,4.00
2019-03-12T18:53:48.280Z,4.00
2019-03-12T18:56:19.156Z,3.90
2019-03-12T18:58:49.735Z,3.90
2019-03-12T19:01:20.527Z,3.90
2019-03-12T19:03:51.090Z,3.80
2019-03-12T19:06:21.829Z,3.80
2019-03-12T19:08:52.457Z,3.70
2019-03-12T19:11:23.270Z,3.70
2019-03-12T19:13:53.898Z,3.70
2019-03-12T19:16:24.633Z,3.60
2019-03-12T19:18:55.247Z,3.60
2019-03-12T19:21:26.098Z,3.60
2019-03-12T19:23:56.780Z,3.60
2019-03-12T19:26:27.818Z,3.50
2019-03-12T19:28:58.487Z,3.50
2019-03-12T19:31:48.158Z,3.50
2019-03-12T19:34:24.516Z,3.40
2019-03-12T19:36:55.272Z,3.30
2019-03-12T19:39:25.864Z,3.30
2019-03-12T19:41:56.841Z,3.30
2019-03-12T19:44:27.463Z,3.20
2019-03-12T19:46:59.122Z,3.20
2019-03-12T19:49:29.689Z,3.20
2019-03-12T19:52:00.730Z,3.20
2019-03-12T19:54:31.356Z,3.10
2019-03-12T19:57:02.098Z,3.10
2019-03-12T19:59:32.642Z,3.10
2019-03-12T20:02:15.513Z,3.10
2019-03-12T20:04:46.808Z,3.10
2019-03-12T20:07:10.524Z,3.10
2019-03-12T20:09:50.946Z,3.10
2019-03-12T20:13:10.069Z,3.10
2019-03-12T20:16:45.694Z,3.00
2019-03-12T20:19:53.973Z,3.00
2019-03-12T20:23:10.621Z,3.00
2019-03-12T20:26:13.629Z,3.00
2019-03-12T20:29:11.588Z,3.00
2019-03-12T20:32:41.212Z,3.00
2019-03-12T20:36:01.518Z,2.90
2019-03-12T20:39:11.172Z,2.90
2019-03-12T20:42:20.850Z,2.90
2019-03-12T20:45:26.791Z,2.90
2019-03-12T20:48:32.422Z,2.90
2019-03-12T20:51:45.567Z,2.90
2019-03-12T20:54:45.677Z,2.80
2019-03-12T20:57:58.518Z,2.80
2019-03-12T21:01:13.194Z,2.80
2019-03-12T21:04:14.163Z,2.80
2019-03-12T21:07:10.835Z,2.80
2019-03-12T21:10:30.146Z,2.80
2019-03-12T21:13:35.924Z,2.80
2019-03-12T21:16:41.104Z,2.80
2019-03-12T21:19:44.034Z,2.80
2019-03-12T21:23:03.135Z,2.80
2019-03-12T21:26:05.269Z,2.80
2019-03-12T21:29:07.357Z,2.70
2019-03-12T21:31:38.068Z,2.70
2019-03-12T21:34:08.743Z,2.70
2019-03-12T21:36:39.396Z,2.70
2019-03-12T21:39:10.583Z,2.70
2019-03-12T21:41:42.793Z,2.70
2019-03-12T21:44:13.722Z,2.70
2019-03-12T21:46:44.139Z,2.70
2019-03-12T21:49:14.756Z,2.60
2019-03-12T21:51:45.292Z,2.60
2019-03-12T21:54:15.888Z,2.70
2019-03-12T21:56:46.633Z,2.60
2019-03-12T21:59:19.291Z,2.70
2019-03-12T22:01:50.090Z,2.60
2019-03-12T22:04:20.775Z,2.60
2019-03-12T22:06:51.399Z,2.60
2019-03-12T22:09:21.953Z,2.50
2019-03-12T22:11:52.573Z,2.50
2019-03-12T22:14:23.210Z,2.40
2019-03-12T22:16:57.129Z,2.40
2019-03-12T22:19:27.704Z,2.40
2019-03-12T22:22:05.940Z,2.40
2019-03-12T22:24:36.597Z,2.30
2019-03-12T22:27:07.129Z,2.30
2019-03-12T22:29:37.740Z,2.20
2019-03-12T22:32:08.232Z,2.20
2019-03-12T22:34:38.734Z,2.20
2019-03-12T22:37:09.254Z,2.10
2019-03-12T22:39:41.366Z,2.10
2019-03-12T22:42:11.868Z,2.10
2019-03-12T22:44:42.410Z,2.00
2019-03-12T22:47:13.249Z,2.00
2019-03-12T22:49:43.814Z,2.00
2019-03-12T22:52:14.376Z,1.90
2019-03-12T22:54:44.842Z,2.00
2019-03-12T22:57:15.302Z,2.00
2019-03-12T23:00:03.999Z,2.00
2019-03-12T23:02:52.226Z,2.00
2019-03-12T23:05:40.937Z,2.00
2019-03-12T23:08:29.374Z,2.00
2019-03-12T23:11:01.587Z,2.00
2019-03-12T23:13:32.586Z,2.00
2019-03-12T23:16:03.602Z,2.00
2019-03-12T23:18:35.588Z,2.00
2019-03-12T23:21:06.637Z,1.90
2019-03-12T23:23:37.391Z,1.90
2019-03-12T23:26:08.215Z,2.00
2019-03-12T23:28:38.829Z,1.90
2019-03-12T23:31:09.597Z,1.90
2019-03-12T23:33:40.148Z,1.90
2019-03-12T23:36:12.469Z,1.90
2019-03-12T23:38:43.078Z,1.90
2019-03-12T23:41:13.648Z,1.90
2019-03-12T23:43:44.502Z,1.80
2019-03-12T23:46:16.260Z,1.80
2019-03-12T23:48:47.055Z,1.80
2019-03-12T23:51:17.739Z,1.90
2019-03-12T23:53:48.654Z,1.80
2019-03-12T23:56:19.496Z,1.80
2019-03-12T23:58:50.086Z,1.90
